createdAt,value
2019-04-16T00:24:38.565Z,5.14
2019-04-16T00:27:28.289Z,5.15
2019-04-16T00:30:04.136Z,5.06
2019-04-16T00:32:56.716Z,5.12
2019-04-16T00:35:46.378Z,5.03
2019-04-16T00:38:41.074Z,4.98
2019-04-16T00:41:10.997Z,4.88
2019-04-16T00:43:47.230Z,4.87
2019-04-16T00:46:40.068Z,4.87
2019-04-16T00:49:14.420Z,4.78
2019-04-16T00:52:09.700Z,4.78
2019-04-16T00:54:43.892Z,4.72
2019-04-16T00:57:29.933Z,4.75
2019-04-16T01:00:03.739Z,4.66
2019-04-16T01:02:38.793Z,4.63
2019-04-16T01:05:12.640Z,4.59
2019-04-16T01:07:46.835Z,4.60
2019-04-16T01:10:32.343Z,4.63
2019-04-16T01:13:17.859Z,4.55
2019-04-16T01:16:08.625Z,4.45
2019-04-16T01:18:46.920Z,4.31
2019-04-16T01:21:37.252Z,4.39
2019-04-16T01:24:11.297Z,4.33
2019-04-16T01:27:00.295Z,4.36
2019-04-16T01:29:34.802Z,4.24
2019-04-16T01:43:06.103Z,4.16
2019-04-16T01:46:00.752Z,4.05
2019-04-16T01:48:49.374Z,4.06
2019-04-16T01:51:27.358Z,4.00
2019-04-16T01:54:28.431Z,3.99
2019-04-16T01:57:05.681Z,3.99
2019-04-16T01:59:42.679Z,4.00
2019-04-16T02:02:21.980Z,3.96
2019-04-16T02:05:08.329Z,3.93
2019-04-16T02:07:53.149Z,3.90
2019-04-16T02:10:31.472Z,3.87
2019-04-16T02:13:08.939Z,3.79
2019-04-16T02:16:01.447Z,3.83
2019-04-16T02:18:35.431Z,3.74
2019-04-16T02:21:10.854Z,3.73
2019-04-16T02:23:57.204Z,3.77
2019-04-16T02:26:31.318Z,3.64
2019-04-16T02:29:18.806Z,3.63
2019-04-16T02:31:55.040Z,3.64
2019-04-16T02:34:47.032Z,3.65
2019-04-16T02:37:21.319Z,3.55
2019-04-16T02:39:54.713Z,3.52
2019-04-16T02:42:32.002Z,3.50
2019-04-16T02:45:04.407Z,3.49
2019-04-16T02:47:49.246Z,3.55
2019-04-16T02:50:54.908Z,3.46
2019-04-16T02:54:12.982Z,3.51
2019-04-16T02:57:08.505Z,3.42
2019-04-16T02:59:48.692Z,3.43
2019-04-16T03:02:44.264Z,3.37
2019-04-16T03:05:39.212Z,3.34
2019-04-16T03:08:13.422Z,3.29
2019-04-16T03:21:47.423Z,3.12
2019-04-16T03:24:40.269Z,3.11
2019-04-16T03:27:14.733Z,3.08
2019-04-16T03:29:48.823Z,3.04
2019-04-16T03:32:23.804Z,3.01
2019-04-16T03:34:58.012Z,3.00
2019-04-16T03:37:49.990Z,2.97
2019-04-16T03:40:25.993Z,2.90
2019-04-16T03:43:18.133Z,2.90
2019-04-16T03:46:13.303Z,2.84
2019-04-16T03:48:57.149Z,2.75
2019-04-16T03:51:43.254Z,2.72
2019-04-16T03:54:18.869Z,2.75
2019-04-16T03:57:13.537Z,2.77
2019-04-16T03:59:50.857Z,2.72
2019-04-16T04:02:35.805Z,2.78
2019-04-16T04:05:09.757Z,2.72
2019-04-16T04:08:01.927Z,2.65
2019-04-16T04:10:53.340Z,2.64
2019-04-16T04:13:30.861Z,2.54
2019-04-16T04:16:08.808Z,2.57
2019-04-16T04:18:54.369Z,2.60
2019-04-16T04:21:31.390Z,2.55
2019-04-16T04:24:23.804Z,2.56
2019-04-16T04:26:57.661Z,2.54
2019-04-16T04:29:31.891Z,2.51
2019-04-16T04:32:17.340Z,2.57
2019-04-16T04:35:08.451Z,2.55
2019-04-16T04:37:53.509Z,2.52
2019-04-16T04:40:27.804Z,2.50
2019-04-16T04:43:06.240Z,2.53
2019-04-16T04:46:04.393Z,2.64
2019-04-16T04:48:39.131Z,2.61
2019-04-16T04:51:29.953Z,2.62
2019-04-16T04:54:25.471Z,2.60
2019-04-16T04:57:00.237Z,2.54
2019-04-16T04:59:36.878Z,2.60
2019-04-16T05:02:21.805Z,2.71
2019-04-16T05:05:36.695Z,2.68
2019-04-16T05:08:11.277Z,2.66
2019-04-16T05:10:58.446Z,2.69
2019-04-16T05:13:25.112Z,2.67
2019-04-16T05:16:16.043Z,2.59
2019-04-16T05:18:49.993Z,2.75
2019-04-16T05:21:41.274Z,2.79
2019-04-16T05:24:37.621Z,2.90
2019-04-16T05:27:12.927Z,2.87
2019-04-16T05:29:49.025Z,2.95
2019-04-16T05:32:40.258Z,3.10
2019-04-16T05:35:42.389Z,3.18
2019-04-16T05:38:16.743Z,3.09
2019-04-16T05:41:12.665Z,3.19
2019-04-16T05:43:37.497Z,3.20
2019-04-16T05:46:28.172Z,3.25
2019-04-16T05:49:13.082Z,3.37
2019-04-16T05:52:05.432Z,3.40
2019-04-16T05:55:04.071Z,3.38
2019-04-16T05:58:02.911Z,3.42
2019-04-16T06:01:16.142Z,3.48
2019-04-16T06:03:53.337Z,3.45
2019-04-16T06:06:39.827Z,3.56
2019-04-16T06:09:13.594Z,3.56
2019-04-16T06:11:48.102Z,3.57
2019-04-16T06:14:56.115Z,3.68
2019-04-16T06:17:51.578Z,3.69
2019-04-16T06:20:45.310Z,3.69
2019-04-16T06:23:56.714Z,3.92
2019-04-16T06:26:40.839Z,3.92
2019-04-16T06:29:29.063Z,4.00
2019-04-16T06:32:28.068Z,4.13
2019-04-16T06:35:07.796Z,4.25
2019-04-16T06:38:21.938Z,4.42
2019-04-16T06:41:11.638Z,4.38
2019-04-16T06:43:51.040Z,4.48
2019-04-16T06:46:44.289Z,4.58
2019-04-16T06:49:50.801Z,4.69
2019-04-16T06:52:40.196Z,4.72
2019-04-16T06:56:14.257Z,4.98
2019-04-16T06:59:26.396Z,5.10
2019-04-16T07:02:25.030Z,5.09
2019-04-16T07:05:11.352Z,5.17
2019-04-16T07:08:19.912Z,5.30
2019-04-16T07:10:58.904Z,5.39
2019-04-16T07:13:54.233Z,5.48
2019-04-16T07:16:40.563Z,5.51
2019-04-16T07:19:17.723Z,5.60
2019-04-16T07:21:52.144Z,5.74
2019-04-16T07:24:30.091Z,5.82
2019-04-16T07:27:02.250Z,5.92
2019-04-16T07:29:57.739Z,5.94
2019-04-16T07:32:50.497Z,5.97
2019-04-16T07:35:51.515Z,6.04
2019-04-16T07:38:45.739Z,6.15
2019-04-16T07:41:43.179Z,6.29
2019-04-16T07:44:36.474Z,6.35
2019-04-16T07:47:41.311Z,6.60
2019-04-16T07:50:55.163Z,6.74
2019-04-16T07:56:48.035Z,6.98
2019-04-16T07:59:22.353Z,7.07
2019-04-16T08:01:56.568Z,7.14
2019-04-16T08:43:59.754Z,8.69
2019-04-16T08:57:05.054Z,9.21
2019-04-16T08:59:39.455Z,9.29
2019-04-16T09:02:26.375Z,9.52
2019-04-16T09:04:58.820Z,9.59
2019-04-16T09:07:44.858Z,9.74
2019-04-16T09:10:34.783Z,9.85
2019-04-16T09:13:09.880Z,10.00
2019-04-16T09:15:43.907Z,10.18
2019-04-16T09:18:31.489Z,10.23
2019-04-16T09:21:06.917Z,10.32
2019-04-16T09:23:40.761Z,10.47
2019-04-16T09:26:31.750Z,10.55
2019-04-16T09:29:31.970Z,10.68
2019-04-16T09:32:13.582Z,10.69
2019-04-16T09:35:10.143Z,10.89
2019-04-16T09:37:49.229Z,11.05
2019-04-16T09:40:56.925Z,11.20
2019-04-16T09:43:31.133Z,11.28
2019-04-16T09:46:31.455Z,11.39
2019-04-16T09:48:55.784Z,11.50
2019-04-16T09:51:29.113Z,11.69
2019-04-16T09:54:13.393Z,11.75
2019-04-16T09:56:47.157Z,11.74
2019-04-16T09:59:37.057Z,11.98
2019-04-16T10:02:14.050Z,12.11
2019-04-16T10:04:48.679Z,12.23
2019-04-16T10:07:21.947Z,12.24
2019-04-16T10:10:09.993Z,12.52
2019-04-16T10:12:43.754Z,12.51
2019-04-16T10:15:17.130Z,12.55
2019-04-16T10:17:50.371Z,12.70
2019-04-16T10:20:24.456Z,12.86
2019-04-16T10:22:58.903Z,13.06
2019-04-16T10:25:55.147Z,13.10
2019-04-16T10:28:39.175Z,13.10
2019-04-16T10:31:15.046Z,13.23
2019-04-16T10:33:58.167Z,13.28
2019-04-16T10:36:31.688Z,13.43
2019-04-16T10:39:27.692Z,13.64
2019-04-16T10:42:20.401Z,13.78
2019-04-16T10:45:11.251Z,13.87
2019-04-16T10:48:13.349Z,13.97
2019-04-16T10:51:09.005Z,14.06
2019-04-16T10:54:18.623Z,14.29
2019-04-16T10:57:27.598Z,14.43
2019-04-16T11:00:13.793Z,14.51
2019-04-16T11:03:20.844Z,14.63
2019-04-16T11:06:00.036Z,14.83
2019-04-16T11:08:33.634Z,14.63
2019-04-16T11:11:06.962Z,14.73
2019-04-16T11:13:42.772Z,14.80
2019-04-16T11:16:25.142Z,14.94
2019-04-16T11:18:58.944Z,15.05
2019-04-16T11:21:32.183Z,15.08
2019-04-16T11:24:05.865Z,15.21
2019-04-16T11:26:39.393Z,15.26
2019-04-16T11:29:12.721Z,15.46
2019-04-16T11:31:46.441Z,15.46
2019-04-16T11:34:19.844Z,15.57
2019-04-16T11:37:07.257Z,15.81
2019-04-16T11:39:39.719Z,15.76
2019-04-16T11:42:13.168Z,16.00
2019-04-16T11:44:46.396Z,15.98
2019-04-16T11:47:33.801Z,15.95
2019-04-16T11:50:12.787Z,15.82
2019-04-16T11:52:46.371Z,15.75
2019-04-16T11:55:19.998Z,15.80
2019-04-16T11:57:53.541Z,15.87
2019-04-16T12:00:37.410Z,16.17
2019-04-16T12:03:43.613Z,16.15
2019-04-16T12:06:45.009Z,16.32
2019-04-16T12:10:11.379Z,16.67
2019-04-16T12:13:25.870Z,16.86
2019-04-16T12:16:14.044Z,16.92
2019-04-16T12:19:21.281Z,16.67
2019-04-16T12:22:12.648Z,16.78
2019-04-16T12:24:52.610Z,16.63
2019-04-16T12:27:43.898Z,16.64
2019-04-16T12:30:53.894Z,16.46
2019-04-16T12:33:48.692Z,16.55
2019-04-16T12:36:40.830Z,16.73
2019-04-16T12:40:00.025Z,17.13
2019-04-16T12:42:42.208Z,17.21
2019-04-16T12:45:27.512Z,17.21
2019-04-16T12:48:45.849Z,17.19
2019-04-16T12:51:51.969Z,17.30
2019-04-16T12:54:44.037Z,17.07
2019-04-16T12:57:47.129Z,17.01
2019-04-16T13:00:43.392Z,17.13
2019-04-16T13:03:46.552Z,17.33
2019-04-16T13:06:32.085Z,17.47
2019-04-16T13:09:37.579Z,17.50
2019-04-16T13:12:22.746Z,17.49
2019-04-16T13:15:28.201Z,17.43
2019-04-16T13:18:25.416Z,17.65
2019-04-16T13:21:12.996Z,17.78
2019-04-16T13:23:55.542Z,17.78
2019-04-16T13:26:56.834Z,17.80
2019-04-16T13:29:47.387Z,17.88
2019-04-16T13:32:30.412Z,17.77
2019-04-16T13:35:14.405Z,17.82
2019-04-16T13:37:48.176Z,17.97
2019-04-16T13:40:30.463Z,18.23
2019-04-16T13:43:05.506Z,18.20
2019-04-16T13:45:40.803Z,18.29
2019-04-16T13:48:36.330Z,18.21
2019-04-16T13:51:18.497Z,18.21
2019-04-16T13:54:00.338Z,18.24
2019-04-16T13:56:37.869Z,18.41
2019-04-16T13:59:30.257Z,18.36
2019-04-16T14:02:06.347Z,18.07
2019-04-16T14:04:41.409Z,18.07
2019-04-16T14:07:14.617Z,18.14
2019-04-16T14:09:56.825Z,18.09
2019-04-16T14:12:41.865Z,18.24
2019-04-16T14:15:31.091Z,18.42
2019-04-16T14:18:04.785Z,18.20
2019-04-16T14:20:38.350Z,18.20
2019-04-16T14:23:21.579Z,18.43
2019-04-16T14:25:54.860Z,18.22
2019-04-16T14:28:28.568Z,18.29
2019-04-16T14:31:16.433Z,17.96
2019-04-16T14:34:01.786Z,18.05
2019-04-16T14:36:35.325Z,18.02
2019-04-16T14:39:20.166Z,18.28
2019-04-16T14:41:53.355Z,18.28
2019-04-16T14:44:40.973Z,18.30
2019-04-16T14:47:29.847Z,18.49
2019-04-16T14:50:13.288Z,18.27
2019-04-16T14:52:47.242Z,18.26
2019-04-16T14:55:33.285Z,18.46
2019-04-16T14:58:49.944Z,18.33
2019-04-16T15:01:45.995Z,18.53
2019-04-16T15:04:25.506Z,18.85
2019-04-16T15:07:24.971Z,18.82
2019-04-16T15:10:22.173Z,18.68
2019-04-16T15:13:02.692Z,18.53
2019-04-16T15:15:42.387Z,18.33
2019-04-16T15:18:26.936Z,18.13
2019-04-16T15:21:35.112Z,17.92
2019-04-16T15:24:40.834Z,17.50
2019-04-16T15:27:32.586Z,17.50
2019-04-16T15:30:34.530Z,17.26
2019-04-16T15:33:30.207Z,17.26
2019-04-16T15:36:19.552Z,17.18
2019-04-16T15:39:36.809Z,17.01
2019-04-16T15:42:27.895Z,17.01
2019-04-16T15:45:19.167Z,16.92
2019-04-16T15:48:23.811Z,16.81
2019-04-16T15:51:39.338Z,16.88
2019-04-16T15:55:05.192Z,16.77
2019-04-16T15:57:49.535Z,16.70
2019-04-16T16:00:57.117Z,16.70
2019-04-16T16:03:42.350Z,16.54
2019-04-16T16:06:20.656Z,16.59
2019-04-16T16:09:13.629Z,16.59
2019-04-16T16:12:01.398Z,16.53
2019-04-16T16:14:38.757Z,16.56
2019-04-16T16:17:11.441Z,16.52
2019-04-16T16:19:45.324Z,16.46
2019-04-16T16:22:18.926Z,16.42
2019-04-16T16:24:52.602Z,16.29
2019-04-16T16:27:26.200Z,16.29
2019-04-16T16:30:00.192Z,16.35
2019-04-16T16:32:45.388Z,16.30
2019-04-16T16:35:19.667Z,16.28
2019-04-16T16:37:53.325Z,16.15
2019-04-16T16:40:38.902Z,16.30
2019-04-16T16:43:26.186Z,16.51
2019-04-16T16:46:31.302Z,16.69
2019-04-16T16:49:05.056Z,16.64
2019-04-16T16:51:41.026Z,16.46
2019-04-16T16:54:37.501Z,16.34
2019-04-16T16:57:15.861Z,16.25
2019-04-16T16:59:57.521Z,16.28
2019-04-16T17:02:35.267Z,16.16
2019-04-16T17:05:33.083Z,16.13
2019-04-16T17:08:10.763Z,15.95
2019-04-16T17:10:44.992Z,16.03
2019-04-16T17:13:21.018Z,15.98
2019-04-16T17:15:54.828Z,15.97
2019-04-16T17:18:37.510Z,15.95
2019-04-16T17:21:20.627Z,15.69
2019-04-16T17:23:54.576Z,15.47
2019-04-16T17:26:28.237Z,15.29
2019-04-16T17:29:03.250Z,15.15
2019-04-16T17:31:36.641Z,15.02
2019-04-16T17:34:10.963Z,14.91
2019-04-16T17:36:44.639Z,14.84
2019-04-16T17:39:46.339Z,14.75
2019-04-16T17:42:20.912Z,14.69
2019-04-16T17:45:11.748Z,14.61
2019-04-16T17:48:06.725Z,14.47
2019-04-16T17:51:13.192Z,14.44
2019-04-16T17:53:53.582Z,14.31
2019-04-16T17:57:00.964Z,14.22
2019-04-16T17:59:43.710Z,14.14
2019-04-16T18:02:34.824Z,13.95
2019-04-16T18:05:14.979Z,13.77
2019-04-16T18:08:05.783Z,13.66
2019-04-16T18:11:02.407Z,13.58
2019-04-16T18:13:53.442Z,13.44
2019-04-16T18:16:49.992Z,13.43
2019-04-16T18:19:44.599Z,13.21
2019-04-16T18:22:45.004Z,13.07
2019-04-16T18:25:56.710Z,12.98
2019-04-16T18:28:33.519Z,12.86
2019-04-16T18:31:23.432Z,12.71
2019-04-16T18:34:33.514Z,12.72
2019-04-16T18:37:49.682Z,12.63
2019-04-16T18:40:30.989Z,12.54
2019-04-16T18:43:32.687Z,12.44
2019-04-16T18:46:22.771Z,12.33
2019-04-16T18:49:27.642Z,12.26
2019-04-16T18:52:00.989Z,12.12
2019-04-16T18:54:45.959Z,12.11
2019-04-16T18:57:19.694Z,12.06
2019-04-16T18:59:53.902Z,12.04
2019-04-16T19:02:28.965Z,11.94
2019-04-16T19:05:02.239Z,11.86
2019-04-16T19:07:36.007Z,11.83
2019-04-16T19:10:09.696Z,11.82
2019-04-16T19:12:43.338Z,11.82
2019-04-16T19:15:17.558Z,11.70
2019-04-16T19:17:59.815Z,11.67
2019-04-16T19:20:33.427Z,11.60
2019-04-16T19:23:06.685Z,11.56
2019-04-16T19:25:40.325Z,11.53
2019-04-16T19:28:13.758Z,11.45
2019-04-16T19:30:52.683Z,11.44
2019-04-16T19:33:33.379Z,11.40
2019-04-16T19:36:35.523Z,11.38
2019-04-16T19:39:18.245Z,11.45
2019-04-16T19:42:02.817Z,11.36
2019-04-16T19:44:46.779Z,11.30
2019-04-16T19:47:23.307Z,11.20
2019-04-16T19:49:57.435Z,11.13
2019-04-16T19:52:40.836Z,11.11
2019-04-16T19:55:23.047Z,11.13
2019-04-16T19:57:57.631Z,11.04
2019-04-16T20:00:31.635Z,11.02
2019-04-16T20:03:05.014Z,11.02
2019-04-16T20:05:38.850Z,10.93
2019-04-16T20:08:12.294Z,10.96
2019-04-16T20:10:48.581Z,10.86
2019-04-16T20:13:20.595Z,10.81
2019-04-16T20:16:09.600Z,10.81
2019-04-16T20:19:07.890Z,10.70
2019-04-16T20:21:47.678Z,10.67
2019-04-16T20:24:46.769Z,10.66
2019-04-16T20:27:21.336Z,10.60
2019-04-16T20:29:55.764Z,10.66
2019-04-16T20:32:31.059Z,10.55
2019-04-16T20:35:17.741Z,10.53
2019-04-16T20:37:58.937Z,10.50
2019-04-16T20:40:32.959Z,10.46
2019-04-16T20:43:09.103Z,10.35
2019-04-16T20:45:42.968Z,10.39
2019-04-16T20:48:17.328Z,10.36
2019-04-16T20:50:52.988Z,10.36
2019-04-16T20:53:25.702Z,10.35
2019-04-16T20:56:10.738Z,10.35
2019-04-16T20:58:52.615Z,10.35
2019-04-16T21:01:35.342Z,10.22
2019-04-16T21:04:13.520Z,10.26
2019-04-16T21:06:46.830Z,10.16
2019-04-16T21:09:20.673Z,10.06
2019-04-16T21:11:54.259Z,10.07
2019-04-16T21:14:30.914Z,10.00
2019-04-16T21:17:06.864Z,9.94
2019-04-16T21:19:48.417Z,9.92
2019-04-16T21:22:24.853Z,9.89
2019-04-16T21:24:57.576Z,9.82
2019-04-16T21:27:52.579Z,9.86
2019-04-16T21:30:26.153Z,9.75
2019-04-16T21:33:04.957Z,9.74
2019-04-16T21:35:40.049Z,9.68
2019-04-16T21:38:21.157Z,9.62
2019-04-16T21:40:56.427Z,9.58
2019-04-16T21:43:29.529Z,9.58
2019-04-16T21:46:01.460Z,9.56
2019-04-16T21:48:36.834Z,9.53
2019-04-16T21:51:10.334Z,9.46
2019-04-16T21:53:43.820Z,9.42
2019-04-16T21:56:17.653Z,9.48
2019-04-16T21:58:51.207Z,9.43
2019-04-16T22:01:41.808Z,9.29
2019-04-16T22:04:24.218Z,9.36
2019-04-16T22:06:57.497Z,9.28
2019-04-16T22:09:31.362Z,9.27
2019-04-16T22:12:07.251Z,9.22
2019-04-16T22:14:51.061Z,9.22
2019-04-16T22:17:26.190Z,9.15
2019-04-16T22:20:03.631Z,9.14
2019-04-16T22:22:34.718Z,9.09
2019-04-16T22:25:07.883Z,9.17
2019-04-16T22:27:50.375Z,9.21
2019-04-16T22:30:24.318Z,9.07
2019-04-16T22:33:07.480Z,9.09
2019-04-16T22:35:41.637Z,9.03
2019-04-16T22:38:16.836Z,8.99
2019-04-16T22:41:01.627Z,8.95
2019-04-16T22:44:21.359Z,8.97
2019-04-16T22:47:10.636Z,8.91
2019-04-16T22:50:15.660Z,8.94
2019-04-16T22:52:37.176Z,8.78
2019-04-16T22:55:10.695Z,8.82
2019-04-16T22:57:44.382Z,8.82
2019-04-16T23:00:44.175Z,8.77
2019-04-16T23:03:16.587Z,8.71
2019-04-16T23:05:51.513Z,8.73
2019-04-16T23:08:25.034Z,8.65
2019-04-16T23:10:58.629Z,8.63
2019-04-16T23:13:32.665Z,8.61
2019-04-16T23:16:16.935Z,8.58
2019-04-16T23:18:55.087Z,8.50
2019-04-16T23:21:28.901Z,8.48
2019-04-16T23:24:02.416Z,8.47
2019-04-16T23:26:36.262Z,8.40
2019-04-16T23:29:18.994Z,8.37
2019-04-16T23:31:56.039Z,8.29
2019-04-16T23:34:28.943Z,8.27
2019-04-16T23:37:03.078Z,8.24
2019-04-16T23:39:37.537Z,8.17
2019-04-16T23:42:11.498Z,8.08
2019-04-16T23:45:05.690Z,8.09
2019-04-16T23:47:57.903Z,8.05
2019-04-16T23:50:58.566Z,8.15
2019-04-16T23:53:57.225Z,8.04
2019-04-16T23:56:42.594Z,7.99
2019-04-16T23:59:25.632Z,8.02
